createdAt,value
2018-12-11T00:00:00.102Z,16.4
2018-12-11T00:00:50.184Z,16.4
2018-12-11T00:01:41.529Z,16.4
2018-12-11T00:02:29.989Z,16.4
2018-12-11T00:03:21.761Z,16.4
2018-12-11T00:04:11.216Z,16.4
2018-12-11T00:05:00.984Z,16.4
2018-12-11T00:05:51.052Z,16.4
2018-12-11T00:06:41.096Z,16.4
2018-12-11T00:25:10.808Z,16.3
2018-12-11T00:25:46.337Z,16.3
2018-12-11T00:26:50.703Z,16.3
2018-12-11T00:27:41.458Z,16.3
2018-12-11T00:28:22.100Z,16.3
2018-12-11T00:29:12.105Z,16.3
2018-12-11T00:30:03.703Z,16.3
2018-12-11T00:30:52.955Z,16.3
2018-12-11T04:54:10.556Z,32.1
2018-12-11T04:54:59.107Z,32.1
2018-12-11T04:55:49.185Z,32.1
2018-12-11T04:56:38.909Z,32.1
2018-12-11T04:57:29.263Z,32.1
2018-12-11T04:58:19.025Z,32.1
2018-12-11T04:59:09.049Z,32.1
2018-12-11T04:59:59.428Z,32.1
2018-12-11T05:00:49.432Z,32.1
2018-12-11T05:01:38.967Z,32.1
2018-12-11T05:02:28.739Z,32.1
2018-12-11T05:03:19.372Z,32.1
2018-12-11T05:04:09.480Z,32
2018-12-11T05:04:58.921Z,32
2018-12-11T05:05:49.249Z,32
2018-12-11T05:06:39.620Z,32
2018-12-11T05:07:28.882Z,32
2018-12-11T05:08:19.752Z,32
2018-12-11T05:09:09.444Z,32
2018-12-11T05:10:00.057Z,32
2018-12-11T05:10:49.877Z,32
2018-12-11T05:11:40.182Z,31.9
2018-12-11T05:12:29.689Z,31.9
2018-12-11T05:13:19.771Z,32
2018-12-11T05:14:09.859Z,31.9
2018-12-11T05:14:59.470Z,31.9
2018-12-11T05:15:49.930Z,31.9
2018-12-11T05:16:40.324Z,31.9
2018-12-11T05:17:29.009Z,31.9
2018-12-11T05:18:22.216Z,31.9
2018-12-11T05:19:09.684Z,31.9
2018-12-11T05:19:59.516Z,31.9
2018-12-11T05:20:50.357Z,31.9
2018-12-11T05:21:40.879Z,31.9
2018-12-11T05:22:30.176Z,31.9
2018-12-11T05:23:20.523Z,31.9
2018-12-11T05:24:10.029Z,31.9
2018-12-11T05:25:00.404Z,31.9
2018-12-11T05:25:50.392Z,31.8
2018-12-11T05:26:40.551Z,31.8
2018-12-11T05:27:30.552Z,31.8
2018-12-11T05:28:20.316Z,31.8
2018-12-11T05:29:12.978Z,31.8
2018-12-11T05:30:00.696Z,31.8
2018-12-11T05:30:52.268Z,31.8
2018-12-11T05:31:40.473Z,31.8
2018-12-11T05:32:30.606Z,31.8
2018-12-11T05:33:21.185Z,31.8
2018-12-11T05:34:11.943Z,31.8
2018-12-11T05:35:00.506Z,31.8
2018-12-11T05:35:50.548Z,31.8
2018-12-11T05:36:41.730Z,31.8
2018-12-11T05:37:31.968Z,31.8
2018-12-11T05:38:21.758Z,31.7
2018-12-11T05:39:13.307Z,31.8
2018-12-11T05:40:01.030Z,31.8
2018-12-11T05:40:51.923Z,31.7
2018-12-11T05:41:42.243Z,31.7
2018-12-11T05:42:31.540Z,31.7
2018-12-11T05:43:21.834Z,31.7
2018-12-11T05:44:12.432Z,31.6
2018-12-11T05:45:03.090Z,31.6
2018-12-11T05:45:52.257Z,31.6
2018-12-11T05:46:41.892Z,31.6
2018-12-11T05:47:32.357Z,31.5
2018-12-11T05:48:22.724Z,31.4
2018-12-11T05:49:12.485Z,31.4
2018-12-11T05:50:02.033Z,31.4
2018-12-11T05:50:52.319Z,31.4
2018-12-11T05:51:42.720Z,31.3
2018-12-11T05:52:33.002Z,31.3
2018-12-11T05:53:23.064Z,31.3
2018-12-11T05:54:12.836Z,31.3
2018-12-11T05:55:01.911Z,31.3
2018-12-11T05:55:52.399Z,31.2
2018-12-11T05:56:42.811Z,31.2
2018-12-11T05:57:32.585Z,31.2
2018-12-11T05:58:23.127Z,31.2
2018-12-11T05:59:12.621Z,31.2
2018-12-11T06:00:03.729Z,31.1
2018-12-11T06:00:53.316Z,31.1
2018-12-11T06:01:43.878Z,31.1
2018-12-11T06:02:33.436Z,30.9
2018-12-11T06:03:23.743Z,30.8
2018-12-11T06:04:13.853Z,30.5
2018-12-11T06:05:03.596Z,30.3
2018-12-11T06:05:54.458Z,30.1
2018-12-11T06:06:44.659Z,29.9
2018-12-11T06:07:32.898Z,29.8
2018-12-11T06:08:23.316Z,29.8
2018-12-11T06:09:12.823Z,29.6
2018-12-11T06:10:03.440Z,29.6
2018-12-11T06:10:54.078Z,29.5
2018-12-11T06:11:43.606Z,29.4
2018-12-11T06:12:32.592Z,29.4
2018-12-11T06:13:23.455Z,29.4
2018-12-11T06:14:13.731Z,29.3
2018-12-11T06:15:04.051Z,29.3
2018-12-11T06:15:54.652Z,29.3
2018-12-11T06:16:43.355Z,29.3
2018-12-11T06:17:34.705Z,29.3
2018-12-11T06:18:24.197Z,29.2
2018-12-11T06:19:14.520Z,29.2
2018-12-11T06:20:04.607Z,29.2
2018-12-11T06:20:54.665Z,29.1
2018-12-11T06:21:45.234Z,29.1
2018-12-11T06:22:34.511Z,29.1
2018-12-11T06:23:24.575Z,29.1
2018-12-11T06:24:14.886Z,29.1
2018-12-11T06:25:06.205Z,29.1
2018-12-11T06:25:55.248Z,29.1
2018-12-11T06:26:45.617Z,29.1
2018-12-11T06:27:35.386Z,29.1
2018-12-11T06:28:25.511Z,29.1
2018-12-11T06:29:14.976Z,29.1
2018-12-11T06:30:05.361Z,29
2018-12-11T06:30:54.786Z,29
2018-12-11T06:31:46.146Z,29
2018-12-11T06:32:35.729Z,29
2018-12-11T06:33:25.534Z,29
2018-12-11T06:34:15.843Z,29
2018-12-11T06:35:05.426Z,29
2018-12-11T06:35:55.923Z,28.9
2018-12-11T06:36:45.705Z,29
2018-12-11T06:37:36.065Z,28.9
2018-12-11T06:38:25.610Z,28.9
2018-12-11T06:39:15.607Z,28.9
2018-12-11T06:40:06.018Z,28.9
2018-12-11T06:40:56.036Z,28.9
2018-12-11T06:41:46.353Z,28.9
2018-12-11T06:42:36.397Z,28.9
2018-12-11T06:43:25.629Z,28.9
2018-12-11T06:44:16.030Z,28.9
2018-12-11T06:45:06.075Z,28.9
2018-12-11T06:45:56.362Z,28.9
2018-12-11T06:46:46.144Z,28.9
2018-12-11T06:47:36.994Z,28.9
2018-12-11T06:48:26.535Z,28.9
2018-12-11T06:49:16.002Z,28.9
2018-12-11T06:50:06.359Z,28.9
2018-12-11T06:50:55.849Z,28.9
2018-12-11T06:51:47.029Z,28.9
2018-12-11T06:52:37.050Z,28.9
2018-12-11T06:53:26.587Z,28.9
2018-12-11T06:54:16.962Z,28.9
2018-12-11T06:55:07.251Z,28.9
2018-12-11T06:55:56.476Z,28.8
2018-12-11T06:56:47.441Z,28.8
2018-12-11T06:57:36.679Z,28.8
2018-12-11T06:58:27.261Z,28.8
2018-12-11T06:59:17.043Z,28.8
2018-12-11T07:00:07.651Z,28.8
2018-12-11T07:00:57.701Z,28.8
2018-12-11T07:01:47.764Z,28.8
2018-12-11T07:02:37.826Z,28.8
2018-12-11T07:03:27.369Z,28.8
2018-12-11T07:04:18.156Z,28.8
2018-12-11T07:05:07.678Z,28.8
2018-12-11T07:05:58.123Z,28.8
2018-12-11T07:06:48.397Z,28.8
2018-12-11T07:07:37.588Z,28.8
2018-12-11T07:08:27.634Z,28.8
2018-12-11T07:09:17.668Z,28.8
2018-12-11T07:10:08.360Z,28.8
2018-12-11T07:10:58.356Z,28.8
2018-12-11T07:11:48.263Z,28.8
2018-12-11T07:12:38.198Z,28.8
2018-12-11T07:13:28.811Z,28.8
2018-12-11T07:14:18.284Z,28.8
2018-12-11T07:15:07.240Z,28.7
2018-12-11T07:15:57.841Z,28.7
2018-12-11T07:16:48.412Z,28.7
2018-12-11T07:17:38.234Z,28.7
2018-12-11T07:18:31.734Z,28.7
2018-12-11T07:19:18.354Z,28.7
2018-12-11T07:20:08.426Z,28.7
2018-12-11T07:20:58.499Z,29.8
2018-12-11T07:21:48.519Z,35.3
2018-12-11T07:22:38.849Z,32.6
2018-12-11T07:23:28.634Z,35
2018-12-11T07:24:18.989Z,38.3
2018-12-11T07:25:09.049Z,39.1
2018-12-11T07:25:58.876Z,38.8
2018-12-11T07:26:48.886Z,38.1
2018-12-11T07:27:39.225Z,37.6
2018-12-11T07:28:28.951Z,37.1
2018-12-11T07:29:19.587Z,36.8
2018-12-11T07:30:09.119Z,36.4
2018-12-11T07:30:59.438Z,36.1
2018-12-11T07:31:49.490Z,35.8
2018-12-11T07:32:39.565Z,35.5
2018-12-11T07:33:29.293Z,35.2
2018-12-11T07:34:18.364Z,34.9
2018-12-11T07:35:09.766Z,34.7
2018-12-11T07:35:59.853Z,34.4
2018-12-11T07:36:49.830Z,34.3
2018-12-11T07:37:39.613Z,34.1
2018-12-11T07:38:29.468Z,33.9
2018-12-11T07:39:19.986Z,33.7
2018-12-11T07:40:09.795Z,33.6
2018-12-11T07:40:59.367Z,33.4
2018-12-11T07:41:49.915Z,33.3
2018-12-11T07:42:40.505Z,33.1
2018-12-11T07:43:30.589Z,33.6
2018-12-11T07:44:20.245Z,36.6
2018-12-11T07:45:10.412Z,35.6
2018-12-11T07:46:00.792Z,38.2
2018-12-11T07:46:49.959Z,40.8
2018-12-11T07:47:40.587Z,41.5
2018-12-11T07:48:30.652Z,41.1
2018-12-11T07:49:20.420Z,40.3
2018-12-11T07:50:10.184Z,39.8
2018-12-11T07:50:59.965Z,39.8
2018-12-11T07:51:50.873Z,40
2018-12-11T07:52:41.189Z,40.4
2018-12-11T07:53:31.299Z,40.8
2018-12-11T07:54:20.806Z,41.1
2018-12-11T07:55:11.180Z,41.3
2018-12-11T07:56:04.531Z,41.3
2018-12-11T07:56:50.651Z,41.3
2018-12-11T07:57:40.996Z,41.3
2018-12-11T07:58:30.772Z,41.4
2018-12-11T07:59:21.638Z,41.5
2018-12-11T08:00:11.239Z,41.6
2018-12-11T08:01:01.500Z,41.8
2018-12-11T08:01:51.274Z,41.9
2018-12-11T08:02:41.881Z,42
2018-12-11T08:03:31.676Z,42.1
2018-12-11T08:04:21.242Z,42.1
2018-12-11T08:05:11.078Z,42.3
2018-12-11T08:06:01.285Z,42.3
2018-12-11T08:06:51.928Z,42.4
2018-12-11T08:07:41.418Z,42.5
2018-12-11T08:08:32.335Z,42.5
2018-12-11T08:09:21.588Z,42.5
2018-12-11T08:10:12.421Z,42.5
2018-12-11T08:11:02.178Z,42.6
2018-12-11T08:11:52.250Z,42.6
2018-12-11T08:12:41.755Z,42.6
2018-12-11T08:13:32.113Z,42.6
2018-12-11T08:14:22.707Z,42.4
2018-12-11T08:15:14.291Z,42.5
2018-12-11T08:16:02.535Z,42.7
2018-12-11T08:16:52.587Z,42.8
2018-12-11T08:17:42.645Z,43
2018-12-11T08:18:32.474Z,43.1
2018-12-11T08:19:23.024Z,43.2
2018-12-11T08:20:12.830Z,43.3
2018-12-11T08:21:02.959Z,43.4
2018-12-11T08:21:53.219Z,43.4
2018-12-11T08:22:42.733Z,43.5
2018-12-11T08:23:33.063Z,43.6
2018-12-11T08:24:22.797Z,43.7
2018-12-11T08:25:13.220Z,43.8
2018-12-11T08:26:03.231Z,43.8
2018-12-11T08:26:53.307Z,43.9
2018-12-11T08:27:43.335Z,44
2018-12-11T08:28:32.836Z,44.1
2018-12-11T08:29:23.444Z,44.2
2018-12-11T08:30:13.756Z,44.3
2018-12-11T08:31:03.291Z,44.3
2018-12-11T08:31:53.344Z,44.4
2018-12-11T08:32:43.961Z,44.4
2018-12-11T08:33:34.079Z,44.5
2018-12-11T08:34:23.338Z,44.6
2018-12-11T08:35:14.391Z,44.6
2018-12-11T08:36:04.437Z,44.8
2018-12-11T08:36:54.023Z,44.8
2018-12-11T08:37:42.635Z,44.8
2018-12-11T08:38:34.153Z,44.8
2018-12-11T08:39:23.648Z,44.8
2018-12-11T08:40:14.196Z,44.7
2018-12-11T08:41:04.835Z,44.8
2018-12-11T08:41:54.303Z,44.9
2018-12-11T08:42:44.387Z,45.1
2018-12-11T08:43:34.494Z,45.2
2018-12-11T08:44:24.216Z,45.3
2018-12-11T08:45:14.544Z,45.3
2018-12-11T08:46:04.616Z,45.4
2018-12-11T08:46:54.678Z,45.4
2018-12-11T08:47:44.993Z,45.6
2018-12-11T08:48:35.066Z,45.6
2018-12-11T08:49:24.840Z,45.6
2018-12-11T08:50:14.428Z,45.4
2018-12-11T08:51:04.684Z,45.1
2018-12-11T08:51:55.363Z,44.9
2018-12-11T08:52:44.299Z,45
2018-12-11T09:08:34.417Z,46.7
2018-12-11T09:09:39.113Z,46.8
2018-12-11T09:10:16.105Z,46.9
2018-12-11T09:11:04.443Z,47
2018-12-11T09:11:54.649Z,47.1
2018-12-11T09:12:58.247Z,47.3
2018-12-11T09:13:49.550Z,47.3
2018-12-11T09:14:24.689Z,47.4
2018-12-11T09:15:14.567Z,47.4
2018-12-11T09:16:04.569Z,47.5
2018-12-11T09:16:54.172Z,47.6
2018-12-11T09:17:59.364Z,47.6
2018-12-11T09:18:35.468Z,47.4
2018-12-11T09:19:24.307Z,47.4
2018-12-11T09:20:29.497Z,47.5
2018-12-11T09:21:05.360Z,47.6
2018-12-11T09:21:55.179Z,47.5
2018-12-11T09:22:59.211Z,47.4
2018-12-11T09:23:49.327Z,47.3
2018-12-11T09:24:25.243Z,47.3
2018-12-11T09:25:29.633Z,47.1
2018-12-11T09:26:19.716Z,46.6
2018-12-11T09:26:55.395Z,46.4
2018-12-11T09:27:45.021Z,46.3
2018-12-11T14:07:27.229Z,40.3
2018-12-11T14:08:16.932Z,40.2
2018-12-11T14:09:06.804Z,40.1
2018-12-11T14:09:57.021Z,39.9
2018-12-11T14:10:46.751Z,39.9
2018-12-11T14:11:36.268Z,39.8
2018-12-11T14:12:26.846Z,39.7
2018-12-11T14:13:17.206Z,39.6
2018-12-11T14:14:06.981Z,39.5
2018-12-11T14:14:56.996Z,39.4
2018-12-11T14:15:46.818Z,39.3
2018-12-11T14:16:36.884Z,39.2
2018-12-11T14:17:27.578Z,39.1
2018-12-11T14:18:17.354Z,39.1
2018-12-11T14:19:07.591Z,39
2018-12-11T14:19:56.841Z,38.9
2018-12-11T14:20:47.437Z,38.8
2018-12-11T14:21:37.228Z,38.8
2018-12-11T14:22:27.815Z,38.6
2018-12-11T14:23:17.618Z,38.6
2018-12-11T14:24:07.676Z,38.6
2018-12-11T14:24:57.776Z,38.4
2018-12-11T14:25:47.042Z,38.4
2018-12-11T14:26:37.625Z,38.3
2018-12-11T14:27:25.846Z,38.3
2018-12-11T14:28:17.283Z,38.2
2018-12-11T14:29:07.463Z,38.1
2018-12-11T14:29:57.180Z,38.1
2018-12-11T14:30:46.725Z,38.1
2018-12-11T14:31:37.156Z,38
2018-12-11T14:32:27.498Z,37.9
2018-12-11T14:33:17.824Z,37.8
2018-12-11T14:34:08.010Z,37.8
2018-12-11T14:34:57.461Z,37.8
2018-12-11T14:35:47.273Z,37.7
2018-12-11T14:36:37.520Z,37.6
2018-12-11T14:37:28.432Z,37.6
2018-12-11T14:38:17.637Z,37.5
2018-12-11T14:39:08.031Z,37.4
2018-12-11T14:39:58.287Z,37.4
2018-12-11T14:40:48.644Z,37.4
2018-12-11T14:41:38.152Z,37.3
2018-12-11T14:42:28.960Z,37.3
2018-12-11T14:43:18.607Z,37.2
2018-12-11T14:44:08.374Z,37.2
2018-12-11T14:44:58.859Z,37.1
2018-12-11T14:45:48.594Z,37.1
2018-12-11T14:46:38.509Z,37.1
2018-12-11T14:47:28.827Z,36.9
2018-12-11T14:48:19.889Z,36.9
2018-12-11T14:49:08.874Z,36.9
2018-12-11T14:49:59.206Z,36.9
2018-12-11T14:50:49.613Z,36.8
2018-12-11T14:51:39.092Z,36.8
2018-12-11T14:52:29.389Z,36.8
2018-12-11T14:53:19.288Z,36.7
2018-12-11T14:54:10.129Z,36.6
2018-12-11T14:54:59.821Z,36.6
2018-12-11T14:55:49.606Z,36.6
2018-12-11T14:56:38.841Z,36.6
2018-12-11T14:57:36.506Z,36.5
2018-12-11T14:58:19.756Z,36.4
2018-12-11T14:59:09.036Z,36.4
2018-12-11T15:00:00.457Z,36.4
2018-12-11T15:00:49.483Z,36.4
2018-12-11T15:01:40.591Z,36.3
2018-12-11T15:02:32.018Z,36.3
2018-12-11T15:03:20.137Z,36.3
2018-12-11T15:04:10.183Z,36.3
2018-12-11T15:04:59.717Z,36.2
2018-12-11T15:05:50.590Z,36.2
2018-12-11T15:06:40.921Z,36.1
2018-12-11T15:07:29.868Z,36.1
2018-12-11T15:08:20.445Z,36
2018-12-11T15:09:10.823Z,36
2018-12-11T15:10:00.643Z,36
2018-12-11T15:10:50.948Z,35.9
2018-12-11T15:11:40.999Z,35.9
2018-12-11T15:12:31.133Z,35.9
2018-12-11T15:13:21.165Z,35.9
2018-12-11T15:14:10.858Z,35.8
2018-12-11T15:15:00.668Z,35.8
2018-12-11T15:15:50.998Z,35.8
2018-12-11T15:16:41.585Z,35.8
2018-12-11T15:17:31.132Z,35.7
2018-12-11T15:18:21.469Z,35.7
2018-12-11T15:19:11.515Z,35.6
2018-12-11T15:20:01.586Z,35.6
2018-12-11T15:20:51.087Z,35.6
2018-12-11T15:21:42.012Z,35.6
2018-12-11T15:22:32.015Z,35.5
2018-12-11T15:23:21.634Z,35.5
2018-12-11T15:24:12.199Z,35.5
2018-12-11T15:25:01.974Z,35.4
2018-12-11T15:25:51.702Z,35.4
2018-12-11T15:26:42.050Z,35.4
2018-12-11T15:27:31.274Z,35.4
2018-12-11T15:28:21.871Z,35.3
2018-12-11T15:29:12.484Z,35.3
2018-12-11T15:30:01.789Z,35.3
2018-12-11T15:30:52.045Z,35.3
2018-12-11T15:31:42.482Z,35.3
2018-12-11T15:32:32.784Z,35.2
2018-12-11T15:33:22.832Z,35.1
2018-12-11T15:34:11.529Z,35.1
2018-12-11T15:35:02.220Z,35.1
2018-12-11T15:35:52.248Z,35.1
2018-12-11T15:36:42.255Z,35.1
2018-12-11T15:37:32.035Z,35
2018-12-11T15:38:22.342Z,35
2018-12-11T15:39:12.462Z,35
2018-12-11T15:40:02.535Z,34.9
2018-12-11T15:40:52.555Z,34.9
2018-12-11T15:41:43.367Z,34.9
2018-12-11T15:42:32.934Z,34.9
2018-12-11T15:43:22.207Z,34.9
2018-12-11T15:44:13.258Z,34.8
2018-12-11T15:45:03.640Z,34.8
2018-12-11T15:45:52.812Z,34.8
2018-12-11T15:46:43.447Z,34.8
2018-12-11T15:47:33.824Z,34.8
2018-12-11T15:48:23.822Z,34.7
2018-12-11T15:49:14.324Z,34.7
2018-12-11T15:50:03.804Z,34.6
2018-12-11T15:50:53.717Z,34.6
2018-12-11T15:51:43.499Z,34.6
2018-12-11T15:52:33.872Z,34.6
2018-12-11T15:53:23.904Z,34.6
2018-12-11T15:54:14.219Z,34.6
2018-12-11T15:55:04.276Z,34.5
2018-12-11T15:55:53.786Z,34.5
2018-12-11T15:56:43.844Z,34.4
2018-12-11T15:57:33.936Z,34.4
2018-12-11T15:58:29.806Z,34.4
2018-12-11T15:59:14.641Z,34.4
2018-12-11T16:00:03.808Z,34.4
2018-12-11T16:00:54.791Z,34.3
2018-12-11T16:01:43.994Z,34.3
2018-12-11T16:02:34.586Z,34.3
2018-12-11T16:03:24.598Z,34.3
2018-12-11T16:04:14.658Z,34.3
2018-12-11T16:05:03.913Z,34.3
2018-12-11T16:05:54.498Z,34.3
2018-12-11T16:06:44.818Z,34.2
2018-12-11T16:07:34.866Z,34.2
2018-12-11T16:08:24.948Z,34.2
2018-12-11T16:09:14.980Z,34.2
2018-12-11T16:10:04.848Z,34.1
2018-12-11T16:10:54.820Z,34.1
2018-12-11T16:11:44.605Z,34.1
2018-12-11T16:12:34.932Z,34.1
2018-12-11T16:13:25.635Z,34.1
2018-12-11T16:14:15.933Z,34.1
2018-12-11T16:15:05.807Z,34
2018-12-11T16:15:55.449Z,34
2018-12-11T16:16:45.788Z,34
2018-12-11T16:17:35.592Z,33.9
2018-12-11T16:18:25.372Z,33.9
2018-12-11T16:19:15.195Z,33.9
2018-12-11T16:20:05.817Z,33.9
2018-12-11T16:20:56.157Z,33.9
2018-12-11T16:21:45.585Z,33.9
2018-12-11T16:22:35.372Z,33.8
2018-12-11T16:23:26.001Z,33.8
2018-12-11T16:24:16.055Z,33.8
2018-12-11T16:25:05.560Z,33.8
2018-12-11T16:25:55.949Z,33.8
2018-12-11T16:26:46.497Z,33.8
2018-12-11T16:27:35.980Z,33.8
2018-12-11T16:28:26.339Z,33.7
2018-12-11T16:29:16.682Z,33.7
2018-12-11T16:30:05.643Z,33.7
2018-12-11T16:30:56.624Z,33.7
2018-12-11T16:31:46.867Z,33.7
2018-12-11T16:32:36.914Z,33.6
2018-12-11T16:33:26.964Z,33.6
2018-12-11T16:34:16.279Z,33.6
2018-12-11T16:35:06.655Z,33.6
2018-12-11T16:35:56.111Z,33.6
2018-12-11T16:36:47.202Z,33.6
2018-12-11T16:37:36.506Z,33.6
2018-12-11T16:38:27.024Z,33.5
2018-12-11T16:39:16.947Z,33.5
2018-12-11T16:40:09.177Z,33.5
2018-12-11T16:40:56.551Z,33.5
2018-12-11T16:41:47.313Z,33.4
2018-12-11T16:42:37.316Z,33.4
2018-12-11T16:43:27.109Z,33.4
2018-12-11T16:44:16.899Z,33.4
2018-12-11T16:45:07.771Z,33.4
2018-12-11T16:45:58.139Z,33.4
2018-12-11T16:46:47.611Z,33.4
2018-12-11T16:47:37.684Z,33.4
2018-12-11T16:48:27.444Z,33.4
2018-12-11T16:49:17.816Z,33.4
2018-12-11T16:50:07.858Z,33.3
2018-12-11T16:50:57.411Z,33.3
2018-12-11T16:51:48.301Z,33.3
2018-12-11T16:52:38.301Z,33.3
2018-12-11T16:53:28.088Z,33.3
2018-12-11T16:54:18.414Z,33.3
2018-12-11T16:55:08.200Z,33.3
2018-12-11T16:55:57.951Z,33.2
2018-12-11T16:56:48.283Z,33.2
2018-12-11T16:57:38.126Z,33.2
2018-12-11T16:58:28.708Z,33.2
2018-12-11T16:59:17.953Z,33.2
2018-12-11T17:00:08.268Z,33.2
2018-12-11T17:00:58.888Z,33.1
2018-12-11T17:01:49.243Z,33.1
2018-12-11T17:02:38.741Z,33.1
2018-12-11T17:03:28.770Z,33.1
2018-12-11T17:04:18.833Z,33.1
2018-12-11T17:05:08.891Z,33.1
2018-12-11T17:05:59.003Z,33.1
2018-12-11T17:06:49.063Z,33.1
2018-12-11T17:07:39.362Z,33.1
2018-12-11T17:08:29.115Z,33.1
2018-12-11T17:09:19.195Z,33.1
2018-12-11T17:10:09.253Z,33.1
2018-12-11T17:10:59.973Z,33
2018-12-11T17:11:49.363Z,33
2018-12-11T17:12:39.430Z,33
2018-12-11T17:13:29.527Z,32.9
2018-12-11T17:14:19.554Z,32.9
2018-12-11T17:15:09.051Z,32.9
2018-12-11T17:15:59.648Z,32.9
2018-12-11T17:16:49.773Z,32.9
2018-12-11T17:17:39.220Z,32.9
2018-12-11T17:18:29.822Z,32.9
2018-12-11T17:19:19.890Z,32.9
2018-12-11T17:20:09.955Z,32.9
2018-12-11T17:20:59.735Z,32.9
2018-12-11T17:21:52.752Z,32.9
2018-12-11T17:22:40.137Z,32.9
2018-12-11T17:23:29.908Z,32.8
2018-12-11T17:24:19.381Z,32.8
2018-12-11T17:25:10.617Z,32.8
2018-12-11T17:26:00.042Z,32.8
2018-12-11T17:26:51.899Z,32.8
2018-12-11T17:27:40.787Z,32.8
2018-12-11T17:28:30.809Z,32.8
2018-12-11T17:29:27.292Z,32.8
2018-12-11T17:30:10.365Z,32.8
2018-12-11T17:31:00.707Z,32.8
2018-12-11T17:31:50.765Z,32.8
2018-12-11T17:32:41.139Z,32.8
2018-12-11T17:33:30.917Z,32.7
2018-12-11T17:34:20.375Z,32.7
2018-12-11T17:35:11.057Z,32.7
2018-12-11T17:36:00.777Z,32.7
2018-12-11T17:36:50.844Z,32.7
2018-12-11T17:37:40.612Z,32.7
2018-12-11T17:38:31.215Z,32.6
2018-12-11T17:39:20.702Z,32.6
2018-12-11T17:40:11.054Z,32.6
2018-12-11T17:41:01.112Z,32.6
2018-12-11T17:41:51.769Z,32.6
2018-12-11T17:42:41.739Z,32.6
2018-12-11T17:43:31.608Z,32.6
2018-12-11T17:44:21.888Z,32.6
2018-12-11T17:45:11.959Z,32.6
2018-12-11T17:46:02.011Z,32.6
2018-12-11T17:46:51.835Z,32.6
2018-12-11T17:47:42.121Z,32.6
2018-12-11T17:48:32.227Z,32.6
2018-12-11T17:49:22.218Z,32.5
2018-12-11T17:50:11.754Z,32.5
2018-12-11T17:51:02.143Z,32.5
2018-12-11T17:51:51.634Z,32.5
2018-12-11T17:52:43.576Z,32.5
2018-12-11T17:53:31.755Z,32.5
2018-12-11T17:54:22.366Z,32.4
2018-12-11T17:55:11.881Z,32.4
2018-12-11T17:56:01.656Z,32.5
2018-12-11T17:56:52.003Z,32.4
2018-12-11T17:57:42.089Z,32.4
2018-12-11T17:58:32.432Z,32.4
2018-12-11T17:59:21.961Z,32.4
2018-12-11T18:00:12.268Z,32.4
2018-12-11T18:01:01.998Z,32.3
2018-12-11T18:01:51.806Z,32.3
2018-12-11T18:02:41.845Z,32.3
2018-12-11T18:03:32.978Z,32.2
2018-12-11T18:04:22.254Z,32.1
2018-12-11T18:05:13.051Z,32.1
2018-12-11T18:23:50.997Z,26.4
2018-12-11T18:24:40.729Z,25.7
2018-12-11T18:25:31.107Z,25.1
2018-12-11T18:26:20.878Z,24.5
2018-12-11T18:27:10.897Z,24
2018-12-11T18:28:00.683Z,23.6
2018-12-11T18:28:51.057Z,23.2
2018-12-11T18:29:41.355Z,22.8
2018-12-11T18:30:31.112Z,22.5
2018-12-11T18:31:21.229Z,22.3
2018-12-11T18:32:10.954Z,22.1
2018-12-11T18:33:01.567Z,21.8
2018-12-11T18:33:51.617Z,21.7
2018-12-11T18:34:41.389Z,21.5
2018-12-11T18:35:31.823Z,21.3
2018-12-11T18:36:21.511Z,21.2
2018-12-11T18:37:11.571Z,21.1
2018-12-11T18:38:01.905Z,20.9
2018-12-11T18:38:51.707Z,20.8
2018-12-11T18:39:42.278Z,20.7
2018-12-11T18:40:32.098Z,20.6
2018-12-11T18:41:22.006Z,20.5
2018-12-11T18:42:11.099Z,20.4
2018-12-11T18:43:02.045Z,20.3
2018-12-11T18:43:52.098Z,20.3
2018-12-11T18:44:42.083Z,20.2
2018-12-11T18:45:32.419Z,20.1
2018-12-11T18:46:22.207Z,20
2018-12-11T18:47:12.271Z,19.9
2018-12-11T18:48:02.057Z,19.9
2018-12-11T18:48:52.430Z,19.8
2018-12-11T18:49:42.743Z,19.8
2018-12-11T18:50:33.025Z,19.7
2018-12-11T18:51:22.576Z,19.7
2018-12-11T18:52:12.958Z,19.6
2018-12-11T18:53:02.397Z,19.6
2018-12-11T18:53:53.009Z,19.5
2018-12-11T18:54:43.085Z,19.4
2018-12-11T18:55:32.582Z,19.4
2018-12-11T18:56:22.622Z,19.4
2018-12-11T18:57:13.235Z,19.3
2018-12-11T18:58:02.805Z,19.3
2018-12-11T18:58:52.817Z,19.3
2018-12-11T18:59:43.140Z,19.3
2018-12-11T19:00:32.982Z,19.2
2018-12-11T19:01:23.270Z,19.2
2018-12-11T19:02:13.310Z,19.1
2018-12-11T19:03:03.706Z,19.1
2018-12-11T19:03:54.763Z,19.1
2018-12-11T19:04:42.933Z,19
2018-12-11T19:05:33.757Z,19
2018-12-11T19:06:23.607Z,19
2018-12-11T19:07:13.929Z,18.9
2018-12-11T19:08:03.711Z,18.9
2018-12-11T19:08:53.774Z,18.9
2018-12-11T19:09:44.120Z,18.8
2018-12-11T19:10:33.397Z,18.8
2018-12-11T19:11:23.978Z,18.8
2018-12-11T19:14:44.229Z,18.6
2018-12-11T19:15:33.676Z,18.6
2018-12-11T19:16:24.042Z,18.6
2018-12-11T19:17:14.641Z,18.5
2018-12-11T19:18:04.434Z,18.5
2018-12-11T19:18:54.797Z,18.5
2018-12-11T19:19:44.523Z,18.4
2018-12-11T19:20:34.883Z,18.4
2018-12-11T19:21:24.361Z,18.4
2018-12-11T19:22:14.993Z,18.4
2018-12-11T19:23:04.486Z,18.4
2018-12-11T19:23:54.538Z,18.4
2018-12-11T19:24:44.921Z,18.4
2018-12-11T19:25:34.936Z,18.3
2018-12-11T19:26:26.235Z,18.3
2018-12-11T19:27:15.031Z,18.3
2018-12-11T19:28:05.353Z,18.3
2018-12-11T19:28:55.136Z,18.3
2018-12-11T19:29:45.519Z,18.2
2018-12-11T19:30:35.585Z,18.2
2018-12-11T19:31:25.468Z,18.2
2018-12-11T19:32:15.423Z,18.2
2018-12-11T19:33:05.467Z,18.2
2018-12-11T19:33:55.502Z,18.1
2018-12-11T19:34:45.285Z,18.1
2018-12-11T19:35:37.705Z,18.1
2018-12-11T19:36:25.702Z,18.1
2018-12-11T19:37:15.453Z,18.1
2018-12-11T19:38:05.547Z,18.1
2018-12-11T19:38:55.847Z,18.1
2018-12-11T19:39:45.618Z,18.1
2018-12-11T19:40:45.511Z,18.1
2018-12-11T19:41:26.294Z,18
2018-12-11T19:42:16.193Z,18
2018-12-11T19:43:12.112Z,18
2018-12-11T19:43:56.189Z,18
2018-12-11T19:44:46.229Z,18
2018-12-11T19:45:36.644Z,17.9
2018-12-11T19:46:26.674Z,18
2018-12-11T19:47:16.421Z,17.9
2018-12-11T19:48:05.934Z,17.9
2018-12-11T19:48:56.601Z,17.9
2018-12-11T19:49:46.713Z,17.9
2018-12-11T19:50:36.654Z,17.9
2018-12-11T19:51:26.947Z,17.9
2018-12-11T19:52:16.528Z,17.9
2018-12-11T19:53:06.546Z,17.9
2018-12-11T19:53:56.858Z,17.9
2018-12-11T19:54:46.676Z,17.9
2018-12-11T19:55:37.361Z,17.9
2018-12-11T19:56:27.605Z,17.9
2018-12-11T19:57:17.118Z,17.9
2018-12-11T19:58:06.071Z,17.9
2018-12-11T19:58:56.658Z,17.9
2018-12-11T19:59:47.293Z,17.8
2018-12-11T20:00:37.870Z,17.8
2018-12-11T20:01:27.118Z,17.8
2018-12-11T20:02:17.175Z,17.8
2018-12-11T20:03:13.480Z,17.8
2018-12-11T20:03:57.595Z,17.8
2018-12-11T20:04:47.897Z,17.8
2018-12-11T20:05:37.409Z,17.8
2018-12-11T20:06:26.699Z,17.8
2018-12-11T20:07:17.802Z,17.8
2018-12-11T20:08:07.284Z,17.8
2018-12-11T20:08:57.368Z,17.8
2018-12-11T20:09:47.422Z,17.8
2018-12-11T20:10:38.324Z,17.8
2018-12-11T20:11:27.834Z,17.8
2018-12-11T20:12:17.882Z,17.8
2018-12-11T20:13:08.292Z,17.9
2018-12-11T20:13:58.546Z,17.9
2018-12-11T20:14:47.778Z,17.9
2018-12-11T20:15:39.011Z,18.1
2018-12-11T20:16:28.191Z,18.1
2018-12-11T20:17:18.493Z,18.2
2018-12-11T20:18:15.324Z,18.3
2018-12-11T20:18:58.886Z,18.4
2018-12-11T20:19:48.669Z,18.5
2018-12-11T20:20:38.786Z,18.6
2018-12-11T20:21:28.546Z,18.8
2018-12-11T20:22:18.555Z,18.9
2018-12-11T20:23:08.888Z,19
2018-12-11T20:24:05.433Z,19.3
2018-12-11T20:24:49.313Z,19.4
2018-12-11T20:25:39.330Z,19.6
2018-12-11T20:26:29.149Z,19.8
2018-12-11T20:27:18.897Z,20
2018-12-11T20:28:08.683Z,20.2
2018-12-11T20:28:59.032Z,20.4
2018-12-11T20:29:49.628Z,20.6
2018-12-11T20:30:39.417Z,20.9
2018-12-11T20:32:19.257Z,21.3
2018-12-11T20:33:09.312Z,21.6
2018-12-11T20:33:59.157Z,21.8
2018-12-11T20:34:48.779Z,22.1
2018-12-11T20:35:38.737Z,22.3
2018-12-11T20:36:28.502Z,22.6
2018-12-11T20:37:19.357Z,22.8
2018-12-11T20:38:08.624Z,23.1
2018-12-11T20:38:59.024Z,23.3
2018-12-11T20:39:49.827Z,23.6
2018-12-11T20:40:40.149Z,23.9
2018-12-11T20:41:30.421Z,24.2
2018-12-11T20:42:19.914Z,24.4
2018-12-11T20:43:10.259Z,24.7
2018-12-11T20:43:59.749Z,24.9
2018-12-11T20:44:50.151Z,25.3
2018-12-11T20:45:40.454Z,25.4
2018-12-11T20:46:29.962Z,25.8
2018-12-11T20:47:21.096Z,26
2018-12-11T20:48:10.326Z,26.3
2018-12-11T20:49:00.106Z,26.5
2018-12-11T20:49:50.529Z,26.8
2018-12-11T20:50:40.804Z,27
2018-12-11T20:51:30.286Z,27.3
2018-12-11T20:52:20.148Z,27.5
2018-12-11T20:53:10.790Z,27.8
2018-12-11T20:54:00.551Z,28
2018-12-11T20:54:50.848Z,28.2
2018-12-11T20:55:41.408Z,28.4
2018-12-11T20:56:31.236Z,28.7
2018-12-11T20:57:21.128Z,28.9
2018-12-11T20:58:11.013Z,29.2
2018-12-11T20:59:01.438Z,29.4
2018-12-11T20:59:50.865Z,29.7
2018-12-11T21:00:41.185Z,29.9
2018-12-11T21:01:31.515Z,30.1
2018-12-11T21:02:21.853Z,30.3
2018-12-11T21:03:11.752Z,30.6
2018-12-11T21:04:01.723Z,30.8